Time;durP1;ratioP1;P1;durP2;ratioP2;P2;SDS_P1;SDS_P2;PMS_P1;PMS_P2;Temp;Humidity;BMP_temperature;BMP_pressure;BME280_temperature;BME280_humidity;BME280_pressure;Samples;Min_cycle;Max_cycle;Signal;HPM_P1;HPM_P2
2022/04/07 00:00:51;;;;;;;8.82;7.93;;;11.20;60.20;;;;;;5050739;28;20434;-58
2022/04/07 00:03:17;;;;;;;10.30;8.18;;;11.20;60.30;;;;;;5044171;28;20037;-59
2022/04/07 00:05:42;;;;;;;11.00;8.35;;;11.20;60.40;;;;;;5055939;28;20392;-59
2022/04/07 00:08:08;;;;;;;9.75;8.13;;;11.20;60.40;;;;;;5048459;28;20061;-58
2022/04/07 00:10:34;;;;;;;9.55;7.70;;;11.10;60.40;;;;;;5045577;28;20035;-59
2022/04/07 00:13:00;;;;;;;9.75;8.13;;;11.20;60.70;;;;;;5045412;28;20104;-59
2022/04/07 00:15:26;;;;;;;9.10;8.20;;;11.10;60.60;;;;;;5045337;28;20040;-59
2022/04/07 00:17:52;;;;;;;9.30;8.40;;;11.10;60.70;;;;;;5049010;28;20033;-59
2022/04/07 00:20:18;;;;;;;8.10;7.30;;;11.10;60.80;;;;;;5037756;28;20388;-59
2022/04/07 00:22:44;;;;;;;10.57;8.25;;;11.10;60.90;;;;;;5055423;28;20039;-59
2022/04/07 00:25:10;;;;;;;9.23;7.68;;;11.10;61.00;;;;;;5055659;28;20104;-58
2022/04/07 00:27:36;;;;;;;10.30;8.48;;;11.10;61.10;;;;;;5054781;28;20100;-59
2022/04/07 00:30:03;;;;;;;9.68;8.00;;;11.00;61.10;;;;;;5042989;28;20045;-59
2022/04/07 00:32:28;;;;;;;9.25;8.30;;;11.00;61.10;;;;;;5042572;28;20423;-58
2022/04/07 00:34:54;;;;;;;9.90;8.75;;;11.10;61.20;;;;;;5054515;28;20033;-59
2022/04/07 00:37:24;;;;;;;10.70;8.35;;;11.10;61.30;;;;;;5054627;28;20024;-59
2022/04/07 00:39:50;;;;;;;13.32;8.43;;;11.10;61.50;;;;;;5054713;28;20052;-59
2022/04/07 00:42:16;;;;;;;8.38;7.47;;;11.10;61.40;;;;;;5051983;28;20026;-58
2022/04/07 00:44:43;;;;;;;11.20;8.77;;;11.20;62.00;;;;;;5055391;28;20029;-59
2022/04/07 00:47:09;;;;;;;9.07;8.18;;;11.10;61.40;;;;;;5055284;28;20025;-58
2022/04/07 00:49:35;;;;;;;10.32;8.43;;;11.10;61.40;;;;;;5044603;28;20025;-59
2022/04/07 00:52:00;;;;;;;10.27;8.35;;;11.10;61.60;;;;;;5055174;28;20064;-59
2022/04/07 00:54:26;;;;;;;9.38;8.35;;;11.10;61.60;;;;;;5055046;28;20475;-59
2022/04/07 00:56:54;;;;;;;10.80;8.88;;;11.10;61.70;;;;;;5054843;28;20021;-59
2022/04/07 00:59:22;;;;;;;10.10;9.07;;;11.00;61.80;;;;;;5042831;28;20041;-59
2022/04/07 01:01:47;;;;;;;10.73;9.00;;;11.00;62.10;;;;;;5041138;28;20084;-59
2022/04/07 01:04:13;;;;;;;9.93;8.35;;;11.00;62.10;;;;;;5053602;28;20114;-59
2022/04/07 01:06:41;;;;;;;11.65;9.55;;;11.00;62.30;;;;;;5038051;28;20473;-58
2022/04/07 01:09:07;;;;;;;11.18;8.98;;;11.00;62.40;;;;;;5054387;28;20025;-59
2022/04/07 01:11:34;;;;;;;9.50;8.50;;;10.90;62.40;;;;;;5054707;28;20017;-59
2022/04/07 01:14:00;;;;;;;11.43;9.25;;;10.90;62.60;;;;;;5042001;28;20021;-59
2022/04/07 01:16:28;;;;;;;8.95;7.95;;;10.90;62.60;;;;;;5052062;28;20091;-59
2022/04/07 01:18:55;;;;;;;9.75;8.75;;;10.90;62.70;;;;;;5054709;28;20426;-59
2022/04/07 01:21:21;;;;;;;9.80;8.38;;;10.90;62.80;;;;;;5054173;28;20028;-59
2022/04/07 01:23:54;;;;;;;10.40;9.23;;;10.90;63.00;;;;;;5053098;28;20076;-59
2022/04/07 01:26:21;;;;;;;10.57;9.57;;;10.90;63.10;;;;;;5044487;28;20349;-59
2022/04/07 01:28:48;;;;;;;9.98;8.98;;;10.90;63.30;;;;;;5054370;28;20048;-59
2022/04/07 01:31:14;;;;;;;12.15;10.50;;;10.80;63.50;;;;;;5054653;28;20052;-59
2022/04/07 01:33:41;;;;;;;10.40;9.27;;;10.80;63.60;;;;;;5052121;28;20455;-59
2022/04/07 01:36:07;;;;;;;12.73;10.23;;;10.80;63.70;;;;;;5052009;28;20108;-59
2022/04/07 01:38:32;;;;;;;13.18;10.73;;;10.80;63.90;;;;;;5054392;28;20113;-59
2022/04/07 01:40:58;;;;;;;12.32;10.02;;;10.80;64.00;;;;;;5050868;28;20048;-59
2022/04/07 01:43:24;;;;;;;11.98;9.90;;;10.80;64.10;;;;;;5054145;28;20481;-59
2022/04/07 01:45:51;;;;;;;10.85;9.70;;;10.80;64.20;;;;;;5044767;28;20036;-59
2022/04/07 01:48:18;;;;;;;11.88;10.00;;;10.80;64.10;;;;;;5054106;28;20479;-59
2022/04/07 01:50:46;;;;;;;10.70;9.55;;;10.80;64.20;;;;;;5053947;28;20083;-59
2022/04/07 01:53:12;;;;;;;11.35;9.23;;;10.80;64.30;;;;;;5053989;28;20032;-59
2022/04/07 01:55:39;;;;;;;10.93;9.77;;;10.80;64.30;;;;;;5041009;28;20397;-59
2022/04/07 01:58:05;;;;;;;13.65;10.90;;;10.80;64.30;;;;;;5041308;28;20050;-59
2022/04/07 02:00:31;;;;;;;11.40;9.88;;;10.80;64.40;;;;;;5053928;28;20028;-61
2022/04/07 02:02:56;;;;;;;11.18;9.90;;;10.80;64.50;;;;;;5053039;28;20389;-59
2022/04/07 02:05:22;;;;;;;12.45;10.80;;;10.80;64.60;;;;;;5043562;28;20612;-59
2022/04/07 02:07:48;;;;;;;13.57;10.50;;;10.80;64.70;;;;;;5047862;28;20469;-59
2022/04/07 02:10:14;;;;;;;13.45;10.30;;;10.80;64.80;;;;;;5050095;28;20071;-59
2022/04/07 02:12:41;;;;;;;12.35;10.27;;;10.80;64.90;;;;;;5051924;28;20025;-58
2022/04/07 02:15:12;;;;;;;13.52;10.10;;;10.80;65.00;;;;;;5032926;28;20520;-59
2022/04/07 02:17:37;;;;;;;11.82;10.15;;;10.80;65.00;;;;;;5036359;28;20120;-59
2022/04/07 02:20:05;;;;;;;12.25;10.68;;;10.80;65.10;;;;;;5047822;28;20032;-59
2022/04/07 02:22:31;;;;;;;11.70;10.15;;;10.80;65.20;;;;;;5052776;28;20476;-59
2022/04/07 02:24:58;;;;;;;12.68;11.35;;;10.70;65.30;;;;;;5046929;28;20076;-59
2022/04/07 02:27:24;;;;;;;12.15;10.57;;;10.70;65.30;;;;;;5050280;28;20120;-59
2022/04/07 02:29:50;;;;;;;13.40;10.57;;;10.70;65.40;;;;;;5052828;28;20041;-59
2022/04/07 02:32:15;;;;;;;13.93;11.27;;;10.70;65.40;;;;;;5041402;28;20025;-59
2022/04/07 02:34:42;;;;;;;11.35;10.18;;;10.70;65.40;;;;;;5050199;28;20029;-59
2022/04/07 02:37:08;;;;;;;12.35;10.63;;;10.70;65.50;;;;;;5045837;28;20117;-59
2022/04/07 02:39:34;;;;;;;12.18;10.65;;;10.70;65.50;;;;;;5048592;28;20032;-59
2022/04/07 02:42:00;;;;;;;11.38;10.20;;;10.70;65.60;;;;;;5039608;28;20090;-59
2022/04/07 02:44:25;;;;;;;13.00;10.88;;;10.70;66.30;;;;;;5051448;28;20036;-59
2022/04/07 02:46:51;;;;;;;11.90;10.70;;;10.70;65.80;;;;;;5043559;28;20046;-59
2022/04/07 02:49:17;;;;;;;13.02;11.25;;;10.70;65.90;;;;;;5045964;28;20384;-59
2022/04/07 02:51:44;;;;;;;12.10;10.93;;;10.70;65.70;;;;;;5052488;28;20036;-59
2022/04/07 02:54:09;;;;;;;12.65;10.90;;;10.60;65.70;;;;;;5052053;28;20376;-59
2022/04/07 02:56:35;;;;;;;13.40;11.85;;;10.60;65.90;;;;;;5040510;28;20032;-59
2022/04/07 02:59:00;;;;;;;13.45;12.05;;;10.60;66.00;;;;;;5034826;28;20033;-59
2022/04/07 03:01:26;;;;;;;13.65;12.23;;;10.60;66.00;;;;;;5047165;28;20033;-59
2022/04/07 03:03:55;;;;;;;15.68;13.13;;;10.70;66.10;;;;;;5052008;28;20025;-59
2022/04/07 03:06:22;;;;;;;13.50;12.07;;;10.70;66.10;;;;;;5048287;28;20365;-59
2022/04/07 03:08:47;;;;;;;14.88;12.32;;;10.70;66.00;;;;;;5052459;28;20096;-59
2022/04/07 03:11:13;;;;;;;12.93;11.63;;;10.70;65.90;;;;;;5052589;28;20040;-59
2022/04/07 03:13:39;;;;;;;15.25;12.00;;;10.70;65.90;;;;;;5052558;28;20033;-59
2022/04/07 03:16:06;;;;;;;13.48;12.07;;;10.60;65.90;;;;;;5051182;28;20036;-59
2022/04/07 03:18:33;;;;;;;15.70;12.48;;;10.60;66.00;;;;;;5052527;28;20025;-59
2022/04/07 03:20:58;;;;;;;15.00;13.50;;;10.60;66.20;;;;;;5045667;28;20377;-59
2022/04/07 03:23:24;;;;;;;14.52;13.02;;;10.60;66.40;;;;;;5046613;28;20086;-59
2022/04/07 03:25:50;;;;;;;17.13;13.90;;;10.60;66.30;;;;;;5042082;28;20056;-59
2022/04/07 03:28:16;;;;;;;19.15;14.35;;;10.60;66.30;;;;;;5052540;28;20021;-59
2022/04/07 03:30:42;;;;;;;15.82;13.90;;;10.60;66.30;;;;;;5049957;28;20067;-59
2022/04/07 03:33:07;;;;;;;15.70;13.88;;;10.60;67.00;;;;;;5051408;28;20112;-59
2022/04/07 03:35:34;;;;;;;15.82;13.15;;;10.60;66.30;;;;;;5044161;28;20025;-59
2022/04/07 03:38:00;;;;;;;14.43;12.52;;;10.60;66.30;;;;;;5050742;28;20029;-59
2022/04/07 03:40:35;;;;;;;14.52;12.98;;;10.70;66.50;;;;;;5045166;28;20036;-59
2022/04/07 03:43:01;;;;;;;14.73;12.88;;;10.70;66.30;;;;;;5052649;28;20025;-59
2022/04/07 03:45:27;;;;;;;16.27;13.43;;;10.70;66.30;;;;;;5045490;28;20029;-59
2022/04/07 03:47:52;;;;;;;19.35;13.43;;;10.70;66.30;;;;;;5050100;28;20100;-59
2022/04/07 03:50:18;;;;;;;14.38;12.88;;;10.60;66.30;;;;;;5052634;28;20025;-59
2022/04/07 03:52:44;;;;;;;16.55;14.07;;;10.60;66.50;;;;;;5052056;28;20037;-59
2022/04/07 03:55:10;;;;;;;15.02;13.43;;;10.60;66.50;;;;;;5048511;28;20107;-59
2022/04/07 03:57:35;;;;;;;15.68;12.32;;;10.50;66.50;;;;;;5048142;28;20036;-59
2022/04/07 04:00:02;;;;;;;13.98;12.32;;;10.50;67.40;;;;;;5042501;28;20032;-59
2022/04/07 04:02:27;;;;;;;13.32;11.80;;;10.50;66.70;;;;;;5052316;28;20044;-59
2022/04/07 04:04:53;;;;;;;15.30;13.32;;;10.50;66.90;;;;;;5044016;28;20412;-59
2022/04/07 04:07:19;;;;;;;16.25;12.65;;;10.50;67.00;;;;;;5042460;28;20059;-59
2022/04/07 04:09:45;;;;;;;15.48;12.38;;;10.40;67.00;;;;;;5050332;28;20021;-61
2022/04/07 04:12:11;;;;;;;14.02;12.55;;;10.50;67.10;;;;;;5048150;28;20093;-59
2022/04/07 04:14:36;;;;;;;15.70;13.07;;;10.50;67.20;;;;;;5035303;28;20033;-59
2022/04/07 04:17:03;;;;;;;13.35;11.95;;;10.40;67.20;;;;;;5052302;28;20036;-59
2022/04/07 04:19:29;;;;;;;15.68;13.30;;;10.40;67.40;;;;;;5051716;28;20036;-59
2022/04/07 04:21:55;;;;;;;13.43;11.98;;;10.40;67.50;;;;;;5052386;28;20463;-59
2022/04/07 04:24:21;;;;;;;19.85;13.38;;;10.50;67.40;;;;;;5041192;28;20029;-59
2022/04/07 04:26:46;;;;;;;12.75;11.45;;;10.50;67.40;;;;;;5040404;28;20499;-59
2022/04/07 04:29:12;;;;;;;16.40;12.63;;;10.50;67.50;;;;;;5035904;28;20042;-59
2022/04/07 04:31:37;;;;;;;13.68;11.25;;;10.60;67.50;;;;;;5034248;28;20546;-59
2022/04/07 04:34:03;;;;;;;14.30;12.52;;;10.60;67.30;;;;;;5044377;28;20071;-59
2022/04/07 04:36:29;;;;;;;14.77;12.13;;;10.60;67.20;;;;;;5041301;28;20029;-59
2022/04/07 04:38:54;;;;;;;14.13;12.02;;;10.60;67.00;;;;;;5042897;28;20075;-59
2022/04/07 04:41:20;;;;;;;14.70;12.85;;;10.60;66.90;;;;;;5040894;28;20112;-59
2022/04/07 04:43:46;;;;;;;14.48;12.18;;;10.70;67.00;;;;;;5044051;28;20438;-59
2022/04/07 04:46:12;;;;;;;13.45;12.05;;;10.70;66.80;;;;;;5049972;28;20028;-59
2022/04/07 04:48:38;;;;;;;13.45;11.85;;;10.80;66.80;;;;;;5054505;28;20025;-59
2022/04/07 04:51:14;;;;;;;12.82;11.43;;;10.90;66.90;;;;;;5047928;28;20468;-59
2022/04/07 04:53:40;;;;;;;12.13;10.68;;;11.30;66.60;;;;;;5050574;28;20037;-59
2022/04/07 04:56:06;;;;;;;11.95;10.45;;;11.80;65.50;;;;;;5045422;28;20491;-58
2022/04/07 04:58:31;;;;;;;13.98;11.35;;;12.10;64.30;;;;;;5040754;28;20029;-58
2022/04/07 05:00:57;;;;;;;13.23;11.75;;;12.30;63.60;;;;;;5043097;28;20032;-58
2022/04/07 05:03:23;;;;;;;14.02;11.48;;;12.40;62.80;;;;;;5050489;28;20025;-59
2022/04/07 05:05:49;;;;;;;12.70;11.35;;;12.40;62.30;;;;;;5049684;28;20048;-58
2022/04/07 05:08:14;;;;;;;14.85;12.25;;;12.30;62.20;;;;;;5047741;28;20056;-59
2022/04/07 05:10:40;;;;;;;16.00;12.98;;;12.10;62.50;;;;;;5047843;28;20456;-59
2022/04/07 05:13:06;;;;;;;15.50;12.35;;;12.00;62.80;;;;;;5053345;28;20025;-59
2022/04/07 05:15:31;;;;;;;16.50;12.32;;;11.90;62.90;;;;;;5055072;28;20071;-59
2022/04/07 05:17:57;;;;;;;17.90;12.52;;;11.90;63.20;;;;;;5048147;28;20036;-58
2022/04/07 05:20:22;;;;;;;15.57;12.43;;;11.90;62.90;;;;;;5051142;28;20029;-59
2022/04/07 05:22:48;;;;;;;16.75;13.20;;;11.90;62.80;;;;;;5040692;28;20025;-59
2022/04/07 05:25:14;;;;;;;15.38;12.65;;;11.90;62.80;;;;;;5047899;28;20025;-58
2022/04/07 05:27:40;;;;;;;14.52;12.32;;;11.80;62.70;;;;;;5051892;28;20029;-59
2022/04/07 05:30:07;;;;;;;14.95;12.05;;;11.70;62.90;;;;;;5043511;28;20121;-59
2022/04/07 05:32:34;;;;;;;14.68;12.45;;;11.70;63.00;;;;;;5045684;28;20025;-58
2022/04/07 05:35:00;;;;;;;13.45;11.98;;;11.70;63.00;;;;;;5048994;28;20112;-59
2022/04/07 05:37:25;;;;;;;15.38;12.52;;;11.60;63.00;;;;;;5038865;28;20437;-59
2022/04/07 05:39:51;;;;;;;14.95;12.82;;;11.60;63.10;;;;;;5040848;28;20035;-58
2022/04/07 05:42:18;;;;;;;16.30;12.40;;;11.50;63.20;;;;;;5039474;28;20558;-59
2022/04/07 05:44:43;;;;;;;17.02;13.00;;;11.40;63.50;;;;;;5046948;28;20063;-59
2022/04/07 05:47:09;;;;;;;16.83;12.73;;;11.30;63.70;;;;;;5043437;28;20060;-59
2022/04/07 05:49:36;;;;;;;13.88;12.32;;;11.40;63.90;;;;;;5039628;28;20040;-59
2022/04/07 05:52:04;;;;;;;12.50;11.20;;;11.40;63.90;;;;;;5039349;28;20111;-59
2022/04/07 05:54:30;;;;;;;14.02;12.07;;;11.50;63.70;;;;;;5043550;28;20104;-59
2022/04/07 05:56:56;;;;;;;15.07;11.73;;;11.50;63.50;;;;;;5036393;28;20037;-59
2022/04/07 05:59:22;;;;;;;14.32;11.60;;;11.50;63.60;;;;;;5035817;28;20500;-59
2022/04/07 06:01:47;;;;;;;15.88;12.55;;;11.60;63.60;;;;;;5036601;28;20136;-59
2022/04/07 06:04:13;;;;;;;13.77;11.93;;;11.60;63.60;;;;;;5038129;28;20033;-59
2022/04/07 06:06:38;;;;;;;18.23;12.88;;;11.70;63.70;;;;;;5039266;28;20114;-59
2022/04/07 06:09:05;;;;;;;16.58;12.18;;;11.80;63.70;;;;;;5042460;28;20090;-59
2022/04/07 06:11:30;;;;;;;13.18;11.88;;;11.80;63.50;;;;;;5043817;28;20091;-59
2022/04/07 06:13:56;;;;;;;13.90;11.75;;;12.00;63.50;;;;;;5040252;28;20033;-59
2022/04/07 06:16:21;;;;;;;16.50;12.32;;;12.10;63.10;;;;;;5046487;28;20147;-59
2022/04/07 06:18:47;;;;;;;18.63;11.80;;;12.20;62.90;;;;;;5037216;28;20088;-60
2022/04/07 06:21:13;;;;;;;15.85;12.43;;;12.30;62.60;;;;;;5029471;28;20028;-59
2022/04/07 06:23:39;;;;;;;16.17;12.32;;;12.40;62.30;;;;;;5032966;28;20029;-59
2022/04/07 06:26:05;;;;;;;12.80;11.48;;;12.40;62.20;;;;;;5033561;28;20100;-59
2022/04/07 06:28:31;;;;;;;13.98;11.55;;;12.40;62.10;;;;;;5032584;28;20079;-59
2022/04/07 06:30:57;;;;;;;13.18;11.20;;;12.40;62.00;;;;;;5039532;28;20071;-59
2022/04/07 06:33:22;;;;;;;14.07;11.48;;;12.40;62.00;;;;;;5039698;28;20029;-59
2022/04/07 06:35:51;;;;;;;13.57;11.38;;;12.50;62.00;;;;;;5036161;28;20047;-59
2022/04/07 06:38:17;;;;;;;15.13;12.32;;;12.50;62.10;;;;;;5035649;28;20128;-59
2022/04/07 06:40:43;;;;;;;15.50;11.63;;;12.50;62.80;;;;;;5037350;28;20044;-59
2022/04/07 06:43:08;;;;;;;15.98;12.52;;;12.60;62.00;;;;;;5035807;28;20033;-58
2022/04/07 06:45:34;;;;;;;14.35;11.38;;;12.70;61.80;;;;;;5033574;28;20035;-58
2022/04/07 06:48:00;;;;;;;14.55;11.52;;;12.80;61.60;;;;;;5035894;28;20037;-58
2022/04/07 06:50:26;;;;;;;13.27;11.65;;;12.90;61.40;;;;;;5042001;28;20028;-58
2022/04/07 06:52:53;;;;;;;14.00;11.82;;;13.00;61.10;;;;;;5028729;28;20021;-58
2022/04/07 06:55:19;;;;;;;14.95;11.82;;;13.10;61.00;;;;;;5031409;28;20053;-59
2022/04/07 06:57:56;;;;;;;13.68;11.20;;;13.20;60.90;;;;;;5034106;28;20547;-58
2022/04/07 07:00:29;;;;;;;12.65;10.88;;;13.40;60.40;;;;;;5028939;28;20099;-58
2022/04/07 07:02:57;;;;;;;16.77;12.05;;;13.40;60.10;;;;;;5030776;28;20037;-58
2022/04/07 07:05:24;;;;;;;13.27;11.65;;;13.50;59.90;;;;;;5028304;28;20033;-58
2022/04/07 07:07:50;;;;;;;13.18;10.32;;;13.60;59.80;;;;;;5030513;28;20124;-59
2022/04/07 07:10:24;;;;;;;13.18;11.13;;;13.70;59.50;;;;;;5022447;28;20707;-59
2022/04/07 07:12:51;;;;;;;12.15;10.57;;;13.90;59.30;;;;;;5031213;28;20041;-59
2022/04/07 07:15:18;;;;;;;13.80;10.77;;;14.00;59.10;;;;;;5047433;28;20082;-59
2022/04/07 07:17:43;;;;;;;13.68;10.88;;;14.20;59.00;;;;;;5021358;28;20047;-58
2022/04/07 07:20:11;;;;;;;12.63;11.10;;;14.30;59.30;;;;;;5023930;28;20037;-59
2022/04/07 07:22:41;;;;;;;11.57;9.57;;;14.50;58.20;;;;;;5030487;28;20033;-58
2022/04/07 07:25:09;;;;;;;12.13;9.90;;;14.60;57.90;;;;;;5029407;28;20017;-58
2022/04/07 07:27:46;;;;;;;11.70;9.18;;;14.70;57.70;;;;;;5032511;28;20025;-59
2022/04/07 07:30:15;;;;;;;13.65;9.60;;;14.80;57.50;;;;;;5027223;28;20064;-58
2022/04/07 07:32:42;;;;;;;13.75;10.13;;;14.90;57.30;;;;;;5028065;28;20728;-59
2022/04/07 07:35:09;;;;;;;10.40;9.27;;;15.00;56.80;;;;;;5029057;28;20037;-59
2022/04/07 07:37:36;;;;;;;11.93;9.77;;;15.10;56.70;;;;;;5029172;28;20068;-58
2022/04/07 07:40:06;;;;;;;12.10;9.57;;;15.20;56.60;;;;;;5032620;28;20100;-59
2022/04/07 07:42:32;;;;;;;10.05;8.48;;;15.30;56.50;;;;;;5030094;28;20028;-58
2022/04/07 07:44:57;;;;;;;11.55;8.75;;;15.40;56.20;;;;;;5033258;28;20025;-59
2022/04/07 07:47:23;;;;;;;12.38;8.85;;;15.50;55.90;;;;;;5026334;28;20091;-58
2022/04/07 07:49:49;;;;;;;10.30;8.52;;;15.60;55.70;;;;;;5029119;28;20798;-59
2022/04/07 07:52:14;;;;;;;9.50;8.50;;;15.60;55.10;;;;;;5022877;28;20492;-59
2022/04/07 07:54:40;;;;;;;8.95;7.47;;;15.60;54.80;;;;;;5031331;28;20055;-59
2022/04/07 07:57:05;;;;;;;12.02;8.20;;;15.60;54.60;;;;;;5024734;28;20032;-59
2022/04/07 07:59:31;;;;;;;8.90;7.90;;;15.60;54.50;;;;;;5022987;28;20508;-59
2022/04/07 08:01:57;;;;;;;10.82;7.80;;;15.60;54.20;;;;;;5025557;28;20039;-59
2022/04/07 08:04:22;;;;;;;8.93;7.75;;;15.70;54.20;;;;;;5027705;28;20025;-58
2022/04/07 08:06:48;;;;;;;8.73;7.50;;;15.70;54.10;;;;;;5022853;28;20034;-59
2022/04/07 08:09:14;;;;;;;10.55;7.50;;;15.70;54.00;;;;;;5023175;28;20037;-59
2022/04/07 08:11:43;;;;;;;9.35;7.10;;;15.80;53.80;;;;;;5027248;28;20028;-60
2022/04/07 08:14:09;;;;;;;9.55;7.40;;;15.80;53.40;;;;;;5029717;28;20029;-59
2022/04/07 08:16:36;;;;;;;10.32;7.70;;;15.90;53.30;;;;;;5029611;28;20037;-58
2022/04/07 08:19:02;;;;;;;10.65;7.53;;;15.90;53.20;;;;;;5021903;28;20029;-59
2022/04/07 08:21:28;;;;;;;11.05;7.75;;;15.90;53.10;;;;;;5021927;28;20037;-59
2022/04/07 08:23:53;;;;;;;10.32;7.60;;;15.90;53.30;;;;;;5034178;28;20033;-60
2022/04/07 08:26:19;;;;;;;8.50;7.25;;;16.00;53.20;;;;;;5030221;28;20025;-60
2022/04/07 08:28:46;;;;;;;11.35;7.47;;;16.00;52.80;;;;;;5031275;28;20099;-58
2022/04/07 08:31:11;;;;;;;11.88;9.20;;;16.10;52.70;;;;;;5027729;28;20061;-60
2022/04/07 08:33:37;;;;;;;10.63;8.00;;;16.10;52.70;;;;;;5028488;28;21960;-60
2022/04/07 08:36:03;;;;;;;10.90;8.75;;;16.10;52.70;;;;;;5028662;28;20621;-59
2022/04/07 08:38:28;;;;;;;8.32;7.18;;;16.20;52.50;;;;;;5024208;28;20032;-60
2022/04/07 08:40:55;;;;;;;10.63;7.57;;;16.20;52.30;;;;;;5019335;28;20033;-60
2022/04/07 08:43:22;;;;;;;9.82;7.28;;;16.30;52.00;;;;;;5020616;28;20102;-59
2022/04/07 08:45:48;;;;;;;7.90;6.93;;;16.30;51.80;;;;;;5021449;28;20028;-60
2022/04/07 08:48:15;;;;;;;10.15;7.13;;;16.30;51.80;;;;;;5030333;28;20051;-61
2022/04/07 08:50:42;;;;;;;10.75;7.95;;;16.30;51.70;;;;;;5025374;28;20028;-60
2022/04/07 08:53:09;;;;;;;8.85;7.18;;;16.30;51.70;;;;;;5019227;28;20120;-60
2022/04/07 08:55:34;;;;;;;10.30;7.25;;;16.40;51.60;;;;;;5025401;28;20029;-59
2022/04/07 08:58:01;;;;;;;12.82;8.30;;;16.40;51.30;;;;;;5024993;28;20088;-60
2022/04/07 09:00:26;;;;;;;8.02;6.90;;;16.50;51.50;;;;;;5015454;28;20041;-60
2022/04/07 09:02:53;;;;;;;9.15;7.35;;;16.50;51.50;;;;;;5019639;28;20060;-59
2022/04/07 09:05:26;;;;;;;10.02;7.15;;;16.60;51.40;;;;;;5031806;28;20036;-59
2022/04/07 09:07:56;;;;;;;9.23;6.35;;;16.60;51.10;;;;;;5029211;28;20025;-60
2022/04/07 09:10:24;;;;;;;7.68;6.13;;;16.70;50.90;;;;;;5028191;28;20087;-60
2022/04/07 09:12:52;;;;;;;9.13;5.80;;;16.70;50.70;;;;;;5024894;28;20040;-60
2022/04/07 09:15:19;;;;;;;7.15;6.25;;;16.70;50.40;;;;;;5029012;28;20439;-61
2022/04/07 09:18:05;;;;;;;7.47;5.28;;;16.70;50.30;;;;;;5015255;28;20086;-60
2022/04/07 09:20:33;;;;;;;7.63;5.85;;;16.80;50.20;;;;;;5022860;28;20575;-61
2022/04/07 09:23:01;;;;;;;7.25;5.13;;;16.80;50.10;;;;;;5028257;28;20070;-60
2022/04/07 09:25:27;;;;;;;7.10;5.18;;;16.90;49.70;;;;;;5023001;28;20511;-60
2022/04/07 09:27:57;;;;;;;6.03;4.95;;;16.90;49.70;;;;;;5023957;28;20071;-60
2022/04/07 09:30:23;;;;;;;9.98;5.78;;;16.90;49.40;;;;;;5021387;28;20468;-60
2022/04/07 09:32:49;;;;;;;8.15;5.25;;;17.00;49.20;;;;;;5020449;28;20037;-59
2022/04/07 09:35:15;;;;;;;5.90;4.68;;;17.10;48.80;;;;;;5021542;28;20036;-60
2022/04/07 09:37:42;;;;;;;9.73;5.68;;;17.10;48.50;;;;;;5026723;28;20029;-59
2022/04/07 09:40:16;;;;;;;7.30;5.03;;;17.10;48.30;;;;;;5029634;28;20036;-59
2022/04/07 09:42:42;;;;;;;8.68;4.95;;;17.10;48.10;;;;;;5030233;28;20123;-59
2022/04/07 09:45:12;;;;;;;7.38;4.55;;;17.20;48.20;;;;;;5027353;28;20029;-59
2022/04/07 09:47:45;;;;;;;6.13;4.43;;;17.20;48.10;;;;;;5022447;28;20033;-60
2022/04/07 09:50:31;;;;;;;9.50;4.63;;;17.20;47.70;;;;;;5019705;28;20124;-59
2022/04/07 09:52:57;;;;;;;6.32;4.30;;;17.20;47.50;;;;;;5014961;28;20029;-59
2022/04/07 09:55:37;;;;;;;8.02;4.47;;;17.20;47.50;;;;;;5027291;28;20701;-59
2022/04/07 09:58:06;;;;;;;7.15;4.10;;;17.20;47.60;;;;;;5041862;28;20030;-60
2022/04/07 10:00:32;;;;;;;6.05;4.55;;;17.30;47.40;;;;;;5021418;28;20036;-59
2022/04/07 10:02:58;;;;;;;9.27;4.50;;;17.30;47.20;;;;;;5013428;28;20029;-61
2022/04/07 10:05:24;;;;;;;5.78;4.47;;;17.30;46.90;;;;;;5025697;28;20051;-59
2022/04/07 10:07:51;;;;;;;6.63;4.40;;;17.30;47.10;;;;;;5009897;28;20036;-59
2022/04/07 10:10:18;;;;;;;5.28;4.75;;;17.30;47.20;;;;;;5020010;28;20030;-59
2022/04/07 10:12:45;;;;;;;7.07;4.30;;;17.30;47.10;;;;;;5027211;28;20095;-59
2022/04/07 10:15:11;;;;;;;7.03;4.07;;;17.40;47.10;;;;;;5025114;28;20509;-59
2022/04/07 10:17:38;;;;;;;4.38;3.97;;;17.40;47.00;;;;;;5023341;28;20025;-59
2022/04/07 10:20:10;;;;;;;4.90;4.13;;;17.40;46.70;;;;;;5027421;28;20033;-59
2022/04/07 10:22:57;;;;;;;8.02;4.28;;;17.50;46.40;;;;;;5021997;28;20037;-59
2022/04/07 10:25:24;;;;;;;7.95;3.75;;;17.50;46.40;;;;;;5025291;28;20732;-59
2022/04/07 10:27:54;;;;;;;9.57;3.80;;;17.50;46.60;;;;;;5020432;28;20067;-59
2022/04/07 10:30:21;;;;;;;5.80;3.72;;;17.50;46.30;;;;;;5025974;28;20083;-58
2022/04/07 10:32:53;;;;;;;6.63;3.83;;;17.50;46.20;;;;;;5012786;28;20408;-61
2022/04/07 10:35:32;;;;;;;4.80;3.78;;;17.50;46.10;;;;;;5016116;28;20037;-62
2022/04/07 10:37:59;;;;;;;5.88;4.40;;;17.60;46.10;;;;;;5010575;28;20142;-60
2022/04/07 10:40:31;;;;;;;5.05;4.05;;;17.60;46.10;;;;;;5015885;28;20037;-60
2022/04/07 10:43:10;;;;;;;7.05;4.35;;;17.60;45.80;;;;;;5019065;28;20037;-60
2022/04/07 10:45:37;;;;;;;5.25;3.60;;;17.60;45.90;;;;;;5027659;28;20812;-60
2022/04/07 10:48:19;;;;;;;6.47;3.95;;;17.70;46.10;;;;;;5026969;28;20029;-60
2022/04/07 10:50:54;;;;;;;4.85;3.58;;;17.70;46.00;;;;;;5028478;28;20032;-60
2022/04/07 10:53:25;;;;;;;5.13;3.60;;;17.70;46.00;;;;;;5030196;28;20130;-60
2022/04/07 10:55:56;;;;;;;4.93;3.38;;;17.80;45.90;;;;;;5018876;28;20171;-60
2022/04/07 10:58:38;;;;;;;6.72;3.67;;;17.80;45.70;;;;;;5026923;28;20036;-60
2022/04/07 11:01:04;;;;;;;6.55;4.00;;;17.80;45.40;;;;;;5011275;28;20726;-60
2022/04/07 11:03:30;;;;;;;5.57;3.67;;;17.80;45.40;;;;;;5027047;28;20099;-60
2022/04/07 11:06:00;;;;;;;4.90;3.20;;;17.80;45.40;;;;;;5027067;28;20400;-60
2022/04/07 11:08:30;;;;;;;5.75;3.05;;;17.90;45.30;;;;;;5024971;28;20021;-59
2022/04/07 11:10:56;;;;;;;4.88;3.72;;;17.90;45.20;;;;;;5024359;28;20029;-60
2022/04/07 11:13:43;;;;;;;5.60;3.58;;;17.90;45.20;;;;;;5021861;28;20071;-60
2022/04/07 11:16:24;;;;;;;4.57;3.70;;;17.90;45.50;;;;;;5024155;28;20025;-60
2022/04/07 11:19:08;;;;;;;4.18;3.25;;;17.90;45.50;;;;;;5022207;28;20068;-60
2022/04/07 11:21:49;;;;;;;5.55;3.70;;;18.00;45.60;;;;;;5023758;28;20044;-60
2022/04/07 11:24:28;;;;;;;5.13;3.60;;;18.00;45.50;;;;;;5017230;28;20029;-60
2022/04/07 11:26:54;;;;;;;6.60;3.78;;;18.00;45.50;;;;;;5024679;28;20044;-59
2022/04/07 11:29:32;;;;;;;9.25;4.28;;;18.00;45.50;;;;;;5026298;28;20564;-59
2022/04/07 11:32:09;;;;;;;7.70;4.03;;;18.00;45.50;;;;;;5024252;28;20025;-60
2022/04/07 11:34:38;;;;;;;5.65;3.38;;;18.10;45.50;;;;;;5017333;28;20033;-60
2022/04/07 11:37:17;;;;;;;3.85;3.05;;;18.10;45.40;;;;;;5024956;28;20079;-59
2022/04/07 11:39:53;;;;;;;3.10;2.78;;;18.10;45.50;;;;;;5021805;28;20096;-59
2022/04/07 11:42:20;;;;;;;7.45;2.83;;;18.10;45.60;;;;;;5020777;28;20036;-59
2022/04/07 11:44:47;;;;;;;5.85;2.72;;;18.10;45.20;;;;;;5025789;28;20025;-58
2022/04/07 11:47:48;;;;;;;3.08;2.78;;;18.20;45.10;;;;;;5023550;28;20025;-60
2022/04/07 11:50:14;;;;;;;4.05;2.70;;;18.10;45.10;;;;;;5012595;28;20098;-59
2022/04/07 11:52:39;;;;;;;6.65;2.45;;;18.10;45.10;;;;;;5027672;28;20120;-60
2022/04/07 11:55:06;;;;;;;9.68;3.33;;;18.10;45.00;;;;;;5027160;28;20033;-59
2022/04/07 11:57:32;;;;;;;4.50;2.60;;;18.20;45.00;;;;;;5022571;28;20047;-59
2022/04/07 12:00:00;;;;;;;7.15;3.28;;;18.20;45.20;;;;;;5023418;28;20037;-59
2022/04/07 12:02:26;;;;;;;5.28;2.55;;;18.20;45.10;;;;;;5031007;28;20033;-59
2022/04/07 12:04:57;;;;;;;6.57;2.88;;;18.20;45.20;;;;;;5024351;28;20056;-59
2022/04/07 12:07:23;;;;;;;4.93;2.65;;;18.20;45.20;;;;;;5028697;28;20070;-59
2022/04/07 12:09:50;;;;;;;3.60;2.65;;;18.20;45.20;;;;;;5024393;28;20732;-59
2022/04/07 12:12:17;;;;;;;3.78;2.92;;;18.20;45.20;;;;;;5027258;28;20090;-59
2022/04/07 12:14:43;;;;;;;5.13;3.17;;;18.20;44.90;;;;;;5025104;28;20464;-58
2022/04/07 12:17:09;;;;;;;5.43;3.25;;;18.20;44.70;;;;;;5032130;28;20044;-59
2022/04/07 12:19:43;;;;;;;8.27;3.35;;;18.30;44.80;;;;;;5031498;28;20025;-59
2022/04/07 12:22:08;;;;;;;8.40;3.60;;;18.30;44.80;;;;;;5026967;28;20032;-58
2022/04/07 12:24:34;;;;;;;8.23;3.70;;;18.30;44.60;;;;;;5026054;28;20029;-59
2022/04/07 12:27:00;;;;;;;6.30;3.20;;;18.30;44.40;;;;;;5029743;28;20563;-59
2022/04/07 12:29:31;;;;;;;13.50;4.00;;;18.40;44.30;;;;;;5029793;28;20049;-59
2022/04/07 12:32:07;;;;;;;8.32;3.20;;;18.40;44.10;;;;;;5023496;28;20119;-60
2022/04/07 12:34:34;;;;;;;8.98;3.42;;;18.50;44.20;;;;;;5030231;28;20041;-60
2022/04/07 12:37:00;;;;;;;7.72;3.30;;;18.40;44.00;;;;;;5033079;28;20036;-59